QLK1983 YBBN-YWLM
Flight info
| Callsign | QLK1983 |
|---|---|
| Flight time | 1h 4m |
| Altitude | 40000 |
| Route | SANEG H91 SANAD/N0342F190 V779 LAXUM |
| Aircraft | E190/M-SDE3GILORVW/S |
Departure
| Time | 2026-04-23 22:42 |
|---|---|
| Airport | Brisbane International Airport (YBBN) |
Arrival
| Time | 2026-04-23 23:46 |
|---|---|
| Airport | Newcastle Airport (YWLM) |
| Time | Latitude | Longitude | Altitude | Speed | Heading |
|---|---|---|---|---|---|
| 2026-04-23 22:22 | -27.38540 | 153.12136 | 16 ft | 0 kts | 306° |
| 2026-04-23 22:33 | -27.38541 | 153.12138 | 16 ft | 2 kts | 306° |
| 2026-04-23 22:33 | -27.38550 | 153.12153 | 16 ft | 2 kts | 259° |
| 2026-04-23 22:34 | -27.38543 | 153.12170 | 18 ft | 2 kts | 234° |
| 2026-04-23 22:34 | -27.38533 | 153.12184 | 17 ft | 2 kts | 230° |
| 2026-04-23 22:34 | -27.38522 | 153.12198 | 16 ft | 2 kts | 203° |
| 2026-04-23 22:34 | -27.38507 | 153.12198 | 19 ft | 2 kts | 124° |
| 2026-04-23 22:35 | -27.38502 | 153.12186 | 17 ft | 0 kts | 91° |
| 2026-04-23 22:37 | -27.38501 | 153.12192 | 18 ft | 2 kts | 86° |
| 2026-04-23 22:37 | -27.38488 | 153.12218 | 16 ft | 6 kts | 53° |
| 2026-04-23 22:37 | -27.38449 | 153.12264 | 18 ft | 10 kts | 48° |
| 2026-04-23 22:38 | -27.38433 | 153.12348 | 16 ft | 13 kts | 89° |
| 2026-04-23 22:38 | -27.38458 | 153.12452 | 17 ft | 15 kts | 108° |
| 2026-04-23 22:38 | -27.38400 | 153.12531 | 17 ft | 15 kts | 27° |
| 2026-04-23 22:38 | -27.38299 | 153.12590 | 18 ft | 18 kts | 27° |
| 2026-04-23 22:39 | -27.38179 | 153.12658 | 17 ft | 21 kts | 27° |
| 2026-04-23 22:39 | -27.38043 | 153.12736 | 19 ft | 23 kts | 27° |
| 2026-04-23 22:39 | -27.37893 | 153.12822 | 16 ft | 26 kts | 27° |
| 2026-04-23 22:39 | -27.37727 | 153.12917 | 16 ft | 28 kts | 27° |
| 2026-04-23 22:40 | -27.37548 | 153.13019 | 17 ft | 30 kts | 25° |
| 2026-04-23 22:40 | -27.37375 | 153.13117 | 17 ft | 20 kts | 26° |
| 2026-04-23 22:40 | -27.37311 | 153.13318 | 17 ft | 18 kts | 117° |
| 2026-04-23 22:41 | -27.37393 | 153.13419 | 18 ft | 18 kts | 157° |
| 2026-04-23 22:41 | -27.37498 | 153.13410 | 20 ft | 14 kts | 208° |
| 2026-04-23 22:41 | -27.37655 | 153.13319 | 19 ft | 57 kts | 207° |
| 2026-04-23 22:41 | -27.38260 | 153.12973 | 20 ft | 135 kts | 207° |
| 2026-04-23 22:42 | -27.39265 | 153.12398 | 334 ft | 182 kts | 208° |
| 2026-04-23 22:42 | -27.40461 | 153.11690 | 1073 ft | 213 kts | 206° |
| 2026-04-23 22:42 | -27.41807 | 153.10865 | 2028 ft | 228 kts | 206° |
| 2026-04-23 22:42 | -27.43305 | 153.10265 | 3089 ft | 236 kts | 181° |
| 2026-04-23 22:43 | -27.44857 | 153.10755 | 4240 ft | 238 kts | 148° |
| 2026-04-23 22:43 | -27.46204 | 153.11843 | 5536 ft | 238 kts | 143° |
| 2026-04-23 22:43 | -27.47513 | 153.12963 | 6825 ft | 235 kts | 143° |
| 2026-04-23 22:43 | -27.48813 | 153.14053 | 8061 ft | 231 kts | 147° |
| 2026-04-23 22:44 | -27.50338 | 153.14782 | 8710 ft | 252 kts | 169° |
| 2026-04-23 22:44 | -27.52141 | 153.14713 | 9460 ft | 270 kts | 192° |
| 2026-04-23 22:44 | -27.53975 | 153.14097 | 10371 ft | 281 kts | 195° |
| 2026-04-23 22:44 | -27.55877 | 153.13340 | 11001 ft | 298 kts | 199° |
| 2026-04-23 22:45 | -27.57863 | 153.12527 | 11842 ft | 306 kts | 197° |
| 2026-04-23 22:45 | -27.59891 | 153.11752 | 12900 ft | 308 kts | 197° |
| 2026-04-23 22:45 | -27.61908 | 153.10982 | 14015 ft | 311 kts | 197° |
| 2026-04-23 22:45 | -27.63987 | 153.10255 | 15071 ft | 314 kts | 195° |
| 2026-04-23 22:46 | -27.66098 | 153.09577 | 16155 ft | 317 kts | 194° |
| 2026-04-23 22:46 | -27.68232 | 153.08881 | 17171 ft | 320 kts | 195° |
| 2026-04-23 22:46 | -27.70389 | 153.08166 | 18134 ft | 324 kts | 195° |
| 2026-04-23 22:46 | -27.72541 | 153.07451 | 19020 ft | 328 kts | 195° |
| 2026-04-23 22:47 | -27.74757 | 153.06712 | 19836 ft | 333 kts | 195° |
| 2026-04-23 22:47 | -27.77004 | 153.05961 | 20654 ft | 338 kts | 195° |
| 2026-04-23 22:47 | -27.79259 | 153.05208 | 21423 ft | 343 kts | 196° |
| 2026-04-23 22:47 | -27.81567 | 153.04433 | 22156 ft | 347 kts | 196° |
| 2026-04-23 22:48 | -27.83881 | 153.03559 | 22859 ft | 351 kts | 201° |
| 2026-04-23 22:48 | -27.86167 | 153.02517 | 23564 ft | 355 kts | 201° |
| 2026-04-23 22:48 | -27.88457 | 153.01497 | 24223 ft | 359 kts | 201° |
| 2026-04-23 22:48 | -27.90806 | 153.00459 | 24833 ft | 363 kts | 201° |
| 2026-04-23 22:49 | -27.93173 | 152.99417 | 25445 ft | 366 kts | 201° |
| 2026-04-23 22:49 | -27.95549 | 152.98371 | 26030 ft | 371 kts | 201° |
| 2026-04-23 22:49 | -27.97978 | 152.97301 | 26621 ft | 374 kts | 201° |
| 2026-04-23 22:49 | -28.00419 | 152.96229 | 27172 ft | 378 kts | 201° |
| 2026-04-23 22:50 | -28.02859 | 152.95154 | 27707 ft | 382 kts | 201° |
| 2026-04-23 22:50 | -28.05367 | 152.94051 | 28233 ft | 385 kts | 201° |
| 2026-04-23 22:50 | -28.07850 | 152.92956 | 28745 ft | 389 kts | 201° |
| 2026-04-23 22:50 | -28.10392 | 152.91836 | 29231 ft | 392 kts | 201° |
| 2026-04-23 22:51 | -28.12953 | 152.90698 | 29713 ft | 396 kts | 202° |
| 2026-04-23 22:51 | -28.15498 | 152.89568 | 30198 ft | 399 kts | 202° |
| 2026-04-23 22:51 | -28.18102 | 152.88409 | 30631 ft | 402 kts | 202° |
| 2026-04-23 22:51 | -28.20723 | 152.87245 | 31027 ft | 404 kts | 202° |
| 2026-04-23 22:52 | -28.22461 | 152.86472 | 31281 ft | 406 kts | 202° |
| 2026-04-23 22:52 | -28.25971 | 152.84910 | 31770 ft | 409 kts | 202° |
| 2026-04-23 22:52 | -28.27771 | 152.84109 | 32015 ft | 411 kts | 202° |
| 2026-04-23 22:52 | -28.30405 | 152.82936 | 32356 ft | 413 kts | 202° |
| 2026-04-23 22:53 | -28.33088 | 152.81740 | 32699 ft | 415 kts | 202° |
| 2026-04-23 22:53 | -28.35779 | 152.80541 | 33137 ft | 414 kts | 201° |
| 2026-04-23 22:53 | -28.38457 | 152.79347 | 33569 ft | 413 kts | 201° |
| 2026-04-23 22:53 | -28.41133 | 152.78154 | 33959 ft | 413 kts | 201° |
| 2026-04-23 22:54 | -28.43814 | 152.76958 | 34321 ft | 413 kts | 201° |
| 2026-04-23 22:54 | -28.46467 | 152.75773 | 34627 ft | 413 kts | 201° |
| 2026-04-23 22:54 | -28.49139 | 152.74577 | 34934 ft | 413 kts | 201° |
| 2026-04-23 22:54 | -28.51822 | 152.73378 | 35231 ft | 413 kts | 201° |
| 2026-04-23 22:55 | -28.54502 | 152.72177 | 35505 ft | 413 kts | 201° |
| 2026-04-23 22:55 | -28.57145 | 152.70993 | 35772 ft | 413 kts | 201° |
| 2026-04-23 22:55 | -28.59833 | 152.69789 | 36049 ft | 413 kts | 201° |
| 2026-04-23 22:55 | -28.62519 | 152.68586 | 36319 ft | 414 kts | 201° |
| 2026-04-23 22:56 | -28.65180 | 152.67392 | 36577 ft | 414 kts | 201° |
| 2026-04-23 22:56 | -28.67873 | 152.66184 | 36835 ft | 414 kts | 201° |
| 2026-04-23 22:56 | -28.70569 | 152.64974 | 37110 ft | 414 kts | 202° |
| 2026-04-23 22:56 | -28.73224 | 152.63781 | 37359 ft | 415 kts | 202° |
| 2026-04-23 22:57 | -28.75918 | 152.62571 | 37630 ft | 415 kts | 202° |
| 2026-04-23 22:57 | -28.78609 | 152.61360 | 37898 ft | 415 kts | 202° |
| 2026-04-23 22:57 | -28.81307 | 152.60146 | 38158 ft | 415 kts | 202° |
| 2026-04-23 22:57 | -28.83961 | 152.58951 | 38412 ft | 415 kts | 202° |
| 2026-04-23 22:58 | -28.86579 | 152.57552 | 38622 ft | 415 kts | 207° |
| 2026-04-23 22:58 | -28.89151 | 152.56020 | 38866 ft | 416 kts | 208° |
| 2026-04-23 22:58 | -28.91724 | 152.54480 | 39106 ft | 415 kts | 208° |
| 2026-04-23 22:58 | -28.94249 | 152.52970 | 39306 ft | 415 kts | 208° |
| 2026-04-23 22:59 | -28.96813 | 152.51437 | 39529 ft | 414 kts | 208° |
| 2026-04-23 22:59 | -28.99377 | 152.49905 | 39738 ft | 413 kts | 208° |
| 2026-04-23 22:59 | -29.01904 | 152.48396 | 39936 ft | 413 kts | 208° |
| 2026-04-23 22:59 | -29.04451 | 152.46873 | 40153 ft | 412 kts | 208° |
| 2026-04-23 23:00 | -29.06980 | 152.45363 | 40378 ft | 410 kts | 208° |
| 2026-04-23 23:00 | -29.09505 | 152.43851 | 40525 ft | 411 kts | 208° |
| 2026-04-23 23:00 | -29.12058 | 152.42325 | 40523 ft | 416 kts | 208° |
| 2026-04-23 23:01 | -29.17224 | 152.39232 | 40456 ft | 426 kts | 208° |
| 2026-04-23 23:01 | -29.22530 | 152.36053 | 40404 ft | 432 kts | 208° |
| 2026-04-23 23:02 | -29.27840 | 152.32868 | 40414 ft | 432 kts | 208° |
| 2026-04-23 23:02 | -29.33181 | 152.29660 | 40410 ft | 432 kts | 208° |
| 2026-04-23 23:03 | -29.38513 | 152.26453 | 40415 ft | 431 kts | 208° |
| 2026-04-23 23:03 | -29.43803 | 152.23268 | 40409 ft | 431 kts | 207° |
| 2026-04-23 23:04 | -29.49121 | 152.20062 | 40415 ft | 431 kts | 207° |
| 2026-04-23 23:04 | -29.54404 | 152.16873 | 40419 ft | 430 kts | 207° |
| 2026-04-23 23:05 | -29.59719 | 152.13662 | 40419 ft | 431 kts | 207° |
| 2026-04-23 23:05 | -29.65030 | 152.10450 | 40429 ft | 431 kts | 207° |
| 2026-04-23 23:06 | -29.70391 | 152.07381 | 40428 ft | 430 kts | 197° |
| 2026-04-23 23:06 | -29.76195 | 152.05796 | 40421 ft | 431 kts | 193° |
| 2026-04-23 23:07 | -29.82045 | 152.04194 | 40431 ft | 430 kts | 193° |
| 2026-04-23 23:07 | -29.87867 | 152.02759 | 40432 ft | 430 kts | 193° |
| 2026-04-23 23:08 | -29.93714 | 152.01274 | 40430 ft | 429 kts | 193° |
| 2026-04-23 23:08 | -29.99533 | 151.99775 | 40429 ft | 429 kts | 193° |
| 2026-04-23 23:09 | -30.05373 | 151.98263 | 40433 ft | 429 kts | 193° |
| 2026-04-23 23:09 | -30.11186 | 151.96753 | 40441 ft | 429 kts | 193° |
| 2026-04-23 23:10 | -30.17025 | 151.95235 | 40439 ft | 429 kts | 193° |
| 2026-04-23 23:10 | -30.22857 | 151.93716 | 40445 ft | 428 kts | 193° |
| 2026-04-23 23:11 | -30.28642 | 151.92208 | 40414 ft | 429 kts | 195° |
| 2026-04-23 23:11 | -30.34343 | 151.90312 | 40462 ft | 424 kts | 204° |
| 2026-04-23 23:12 | -30.39817 | 151.87761 | 40451 ft | 425 kts | 204° |
| 2026-04-23 23:12 | -30.45283 | 151.85198 | 40446 ft | 426 kts | 204° |
| 2026-04-23 23:13 | -30.50788 | 151.82620 | 40452 ft | 426 kts | 204° |
| 2026-04-23 23:13 | -30.56267 | 151.80056 | 40453 ft | 426 kts | 204° |
| 2026-04-23 23:14 | -30.61784 | 151.77470 | 40449 ft | 426 kts | 204° |
| 2026-04-23 23:14 | -30.67259 | 151.74901 | 40449 ft | 426 kts | 204° |
| 2026-04-23 23:15 | -30.72770 | 151.72311 | 40453 ft | 426 kts | 204° |
| 2026-04-23 23:15 | -30.78254 | 151.69730 | 40453 ft | 427 kts | 204° |
| 2026-04-23 23:16 | -30.83744 | 151.67146 | 40451 ft | 427 kts | 203° |
| 2026-04-23 23:16 | -30.89267 | 151.64543 | 40455 ft | 427 kts | 203° |
| 2026-04-23 23:17 | -30.94754 | 151.61953 | 40458 ft | 427 kts | 203° |
| 2026-04-23 23:17 | -31.00260 | 151.59350 | 40457 ft | 426 kts | 203° |
| 2026-04-23 23:18 | -31.05781 | 151.56736 | 40458 ft | 427 kts | 203° |
| 2026-04-23 23:18 | -31.11269 | 151.54136 | 40461 ft | 427 kts | 203° |
| 2026-04-23 23:19 | -31.16750 | 151.51535 | 40464 ft | 427 kts | 203° |
| 2026-04-23 23:19 | -31.22265 | 151.48915 | 40465 ft | 427 kts | 203° |
| 2026-04-23 23:19 | -31.25014 | 151.47605 | 40078 ft | 424 kts | 203° |
| 2026-04-23 23:20 | -31.27703 | 151.46324 | 39878 ft | 409 kts | 203° |
| 2026-04-23 23:20 | -31.30323 | 151.45077 | 39288 ft | 406 kts | 203° |
| 2026-04-23 23:20 | -31.32894 | 151.43851 | 38742 ft | 399 kts | 203° |
| 2026-04-23 23:20 | -31.35450 | 151.42634 | 38233 ft | 392 kts | 201° |
| 2026-04-23 23:21 | -31.38079 | 151.41861 | 37754 ft | 385 kts | 187° |
| 2026-04-23 23:21 | -31.40745 | 151.41885 | 37198 ft | 383 kts | 172° |
| 2026-04-23 23:21 | -31.43327 | 151.42560 | 36750 ft | 377 kts | 168° |
| 2026-04-23 23:21 | -31.45840 | 151.43308 | 36209 ft | 374 kts | 168° |
| 2026-04-23 23:22 | -31.48369 | 151.44069 | 35735 ft | 372 kts | 168° |
| 2026-04-23 23:22 | -31.50886 | 151.44821 | 35229 ft | 374 kts | 168° |
| 2026-04-23 23:22 | -31.53396 | 151.45568 | 34746 ft | 377 kts | 167° |
| 2026-04-23 23:22 | -31.55962 | 151.46329 | 34186 ft | 380 kts | 167° |
| 2026-04-23 23:23 | -31.58509 | 151.47079 | 33748 ft | 379 kts | 167° |
| 2026-04-23 23:23 | -31.61084 | 151.47834 | 33216 ft | 381 kts | 167° |
| 2026-04-23 23:23 | -31.63660 | 151.48587 | 32721 ft | 381 kts | 167° |
| 2026-04-23 23:23 | -31.66207 | 151.49329 | 32218 ft | 381 kts | 167° |
| 2026-04-23 23:24 | -31.68786 | 151.50078 | 31719 ft | 380 kts | 167° |
| 2026-04-23 23:24 | -31.71356 | 151.50821 | 31205 ft | 380 kts | 167° |
| 2026-04-23 23:24 | -31.73921 | 151.51560 | 30707 ft | 379 kts | 166° |
| 2026-04-23 23:24 | -31.76492 | 151.52298 | 30167 ft | 378 kts | 166° |
| 2026-04-23 23:25 | -31.79007 | 151.53018 | 29696 ft | 376 kts | 166° |
| 2026-04-23 23:25 | -31.81551 | 151.53749 | 29213 ft | 374 kts | 166° |
| 2026-04-23 23:25 | -31.84078 | 151.54504 | 28686 ft | 373 kts | 165° |
| 2026-04-23 23:25 | -31.86589 | 151.55254 | 28208 ft | 369 kts | 165° |
| 2026-04-23 23:26 | -31.89045 | 151.55986 | 27728 ft | 366 kts | 165° |
| 2026-04-23 23:26 | -31.91514 | 151.56723 | 27246 ft | 363 kts | 165° |
| 2026-04-23 23:26 | -31.93957 | 151.57452 | 26760 ft | 361 kts | 165° |
| 2026-04-23 23:26 | -31.96385 | 151.58177 | 26283 ft | 358 kts | 165° |
| 2026-04-23 23:27 | -31.98794 | 151.58895 | 25811 ft | 355 kts | 165° |
| 2026-04-23 23:27 | -32.01161 | 151.59601 | 25336 ft | 353 kts | 165° |
| 2026-04-23 23:27 | -32.03541 | 151.60313 | 24888 ft | 350 kts | 165° |
| 2026-04-23 23:27 | -32.05904 | 151.61018 | 24387 ft | 349 kts | 165° |
| 2026-04-23 23:28 | -32.08217 | 151.61710 | 23950 ft | 346 kts | 165° |
| 2026-04-23 23:28 | -32.10546 | 151.62405 | 23482 ft | 343 kts | 165° |
| 2026-04-23 23:28 | -32.12846 | 151.63094 | 23018 ft | 340 kts | 165° |
| 2026-04-23 23:28 | -32.15133 | 151.63782 | 22583 ft | 337 kts | 165° |
| 2026-04-23 23:29 | -32.17399 | 151.64465 | 22138 ft | 335 kts | 165° |
| 2026-04-23 23:29 | -32.19650 | 151.65142 | 21707 ft | 333 kts | 164° |
| 2026-04-23 23:29 | -32.21898 | 151.65820 | 21244 ft | 332 kts | 164° |
| 2026-04-23 23:29 | -32.24134 | 151.66493 | 20809 ft | 330 kts | 164° |
| 2026-04-23 23:30 | -32.26320 | 151.67154 | 20380 ft | 327 kts | 164° |
| 2026-04-23 23:30 | -32.28540 | 151.67822 | 19945 ft | 325 kts | 164° |
| 2026-04-23 23:30 | -32.30731 | 151.68485 | 19514 ft | 321 kts | 164° |
| 2026-04-23 23:30 | -32.32851 | 151.69123 | 19086 ft | 314 kts | 164° |
| 2026-04-23 23:31 | -32.34957 | 151.69752 | 18669 ft | 308 kts | 164° |
| 2026-04-23 23:31 | -32.37020 | 151.70359 | 18270 ft | 301 kts | 164° |
| 2026-04-23 23:31 | -32.39045 | 151.70956 | 17883 ft | 298 kts | 164° |
| 2026-04-23 23:31 | -32.41028 | 151.71541 | 17499 ft | 298 kts | 164° |
| 2026-04-23 23:32 | -32.43031 | 151.72155 | 17102 ft | 297 kts | 160° |
| 2026-04-23 23:32 | -32.44810 | 151.73375 | 16682 ft | 297 kts | 137° |
| 2026-04-23 23:32 | -32.46245 | 151.75135 | 16309 ft | 297 kts | 134° |
| 2026-04-23 23:32 | -32.47671 | 151.76924 | 15888 ft | 296 kts | 134° |
| 2026-04-23 23:33 | -32.49070 | 151.78672 | 15499 ft | 295 kts | 134° |
| 2026-04-23 23:33 | -32.50481 | 151.80433 | 15108 ft | 294 kts | 134° |
| 2026-04-23 23:33 | -32.51893 | 151.82194 | 14729 ft | 293 kts | 134° |
| 2026-04-23 23:33 | -32.53281 | 151.83919 | 14339 ft | 292 kts | 134° |
| 2026-04-23 23:34 | -32.54680 | 151.85658 | 13936 ft | 290 kts | 134° |
| 2026-04-23 23:34 | -32.56071 | 151.87385 | 13562 ft | 287 kts | 134° |
| 2026-04-23 23:34 | -32.57240 | 151.89294 | 13174 ft | 286 kts | 119° |
| 2026-04-23 23:34 | -32.58130 | 151.91403 | 12777 ft | 285 kts | 116° |
| 2026-04-23 23:35 | -32.58973 | 151.93494 | 12384 ft | 283 kts | 116° |
| 2026-04-23 23:35 | -32.59820 | 151.95587 | 11996 ft | 280 kts | 116° |
| 2026-04-23 23:35 | -32.60661 | 151.97663 | 11617 ft | 278 kts | 116° |
| 2026-04-23 23:35 | -32.61498 | 151.99726 | 11234 ft | 276 kts | 116° |
| 2026-04-23 23:36 | -32.62327 | 152.01771 | 10854 ft | 274 kts | 116° |
| 2026-04-23 23:36 | -32.63154 | 152.03803 | 10112 ft | 273 kts | 116° |
| 2026-04-23 23:36 | -32.63970 | 152.05813 | 9581 ft | 266 kts | 116° |
| 2026-04-23 23:36 | -32.64769 | 152.07780 | 9270 ft | 264 kts | 116° |
| 2026-04-23 23:37 | -32.65564 | 152.09742 | 9033 ft | 264 kts | 117° |
| 2026-04-23 23:37 | -32.66728 | 152.11403 | 8760 ft | 266 kts | 145° |
| 2026-04-23 23:37 | -32.68464 | 152.12062 | 8529 ft | 271 kts | 174° |
| 2026-04-23 23:37 | -32.70359 | 152.12114 | 8321 ft | 272 kts | 176° |
| 2026-04-23 23:38 | -32.72255 | 152.12147 | 8071 ft | 272 kts | 176° |
| 2026-04-23 23:38 | -32.74148 | 152.12184 | 7843 ft | 272 kts | 176° |
| 2026-04-23 23:38 | -32.76034 | 152.12228 | 7628 ft | 271 kts | 176° |
| 2026-04-23 23:38 | -32.77890 | 152.12265 | 7439 ft | 270 kts | 176° |
| 2026-04-23 23:39 | -32.79776 | 152.12309 | 7189 ft | 271 kts | 176° |
| 2026-04-23 23:39 | -32.81655 | 152.12351 | 6943 ft | 268 kts | 176° |
| 2026-04-23 23:39 | -32.83514 | 152.12394 | 6748 ft | 265 kts | 176° |
| 2026-04-23 23:39 | -32.85366 | 152.12438 | 6527 ft | 263 kts | 177° |
| 2026-04-23 23:40 | -32.86563 | 152.12463 | 6375 ft | 257 kts | 176° |
| 2026-04-23 23:40 | -32.88333 | 152.12499 | 6080 ft | 251 kts | 178° |
| 2026-04-23 23:40 | -32.90008 | 152.12003 | 5781 ft | 251 kts | 207° |
| 2026-04-23 23:40 | -32.91399 | 152.10767 | 5546 ft | 249 kts | 218° |
| 2026-04-23 23:41 | -32.92688 | 152.09368 | 5190 ft | 250 kts | 219° |
| 2026-04-23 23:41 | -32.93963 | 152.08002 | 4845 ft | 249 kts | 222° |
| 2026-04-23 23:41 | -32.94869 | 152.06262 | 4527 ft | 250 kts | 253° |
| 2026-04-23 23:41 | -32.94819 | 152.04224 | 4227 ft | 250 kts | 291° |
| 2026-04-23 23:42 | -32.93850 | 152.02562 | 3922 ft | 243 kts | 315° |
| 2026-04-23 23:42 | -32.92613 | 152.01180 | 3579 ft | 244 kts | 319° |
| 2026-04-23 23:42 | -32.91370 | 151.99778 | 3235 ft | 248 kts | 316° |
| 2026-04-23 23:42 | -32.90168 | 151.98311 | 2910 ft | 245 kts | 312° |
| 2026-04-23 23:43 | -32.89071 | 151.96790 | 2573 ft | 237 kts | 310° |
| 2026-04-23 23:43 | -32.88026 | 151.95304 | 2232 ft | 229 kts | 309° |
| 2026-04-23 23:43 | -32.87035 | 151.93906 | 1940 ft | 219 kts | 309° |
| 2026-04-23 23:43 | -32.86069 | 151.92544 | 1651 ft | 210 kts | 309° |
| 2026-04-23 23:44 | -32.85169 | 151.91269 | 1410 ft | 192 kts | 309° |
| 2026-04-23 23:44 | -32.84340 | 151.90109 | 1102 ft | 178 kts | 309° |
| 2026-04-23 23:44 | -32.83602 | 151.89068 | 907 ft | 150 kts | 309° |
| 2026-04-23 23:44 | -32.82965 | 151.88177 | 688 ft | 132 kts | 310° |
| 2026-04-23 23:45 | -32.82394 | 151.87380 | 546 ft | 123 kts | 310° |
| 2026-04-23 23:45 | -32.81853 | 151.86626 | 425 ft | 120 kts | 311° |
| 2026-04-23 23:45 | -32.81316 | 151.85878 | 291 ft | 117 kts | 311° |
| 2026-04-23 23:45 | -32.80791 | 151.85151 | 137 ft | 114 kts | 311° |
| 2026-04-23 23:46 | -32.80288 | 151.84452 | 26 ft | 102 kts | 311° |
| 2026-04-23 23:46 | -32.79914 | 151.83933 | 29 ft | 62 kts | 310° |
| 2026-04-23 23:46 | -32.79668 | 151.83591 | 28 ft | 50 kts | 310° |
| 2026-04-23 23:46 | -32.79467 | 151.83313 | 30 ft | 38 kts | 309° |
| 2026-04-23 23:47 | -32.79305 | 151.83091 | 32 ft | 28 kts | 309° |
| 2026-04-23 23:47 | -32.79199 | 151.83019 | 33 ft | 16 kts | 26° |
| 2026-04-23 23:47 | -32.79138 | 151.83126 | 33 ft | 18 kts | 103° |
| 2026-04-23 23:47 | -32.79217 | 151.83251 | 32 ft | 21 kts | 130° |
| 2026-04-23 23:48 | -32.79307 | 151.83377 | 31 ft | 14 kts | 130° |
| 2026-04-23 23:48 | -32.79370 | 151.83464 | 31 ft | 16 kts | 131° |
| 2026-04-23 23:48 | -32.79448 | 151.83574 | 30 ft | 19 kts | 130° |
| 2026-04-23 23:48 | -32.79536 | 151.83698 | 30 ft | 20 kts | 130° |
| 2026-04-23 23:49 | -32.79721 | 151.83956 | 29 ft | 13 kts | 130° |
| 2026-04-23 23:49 | -32.79778 | 151.83984 | 29 ft | 7 kts | 215° |
| 2026-04-23 23:49 | -32.79783 | 151.83978 | 29 ft | 0 kts | 226° |
| 2026-04-23 23:51 | -32.79788 | 151.83970 | 29 ft | 3 kts | 230° |
| 2026-04-23 23:52 | -32.79807 | 151.83941 | 29 ft | 6 kts | 233° |
| 2026-04-23 23:52 | -32.79840 | 151.83893 | 29 ft | 9 kts | 222° |
| 2026-04-23 23:52 | -32.79904 | 151.83858 | 29 ft | 11 kts | 191° |
| 2026-04-23 23:52 | -32.79993 | 151.83843 | 28 ft | 15 kts | 188° |
| 2026-04-23 23:53 | -32.80104 | 151.83820 | 28 ft | 18 kts | 190° |
| 2026-04-23 23:53 | -32.80208 | 151.83882 | 27 ft | 18 kts | 131° |
| 2026-04-23 23:53 | -32.80291 | 151.83994 | 27 ft | 10 kts | 130° |
| 2026-04-23 23:53 | -32.80329 | 151.84028 | 27 ft | 4 kts | 193° |
| 2026-04-23 23:54 | -32.80343 | 151.83993 | 27 ft | 6 kts | 250° |
| 2026-04-23 23:54 | -32.80345 | 151.83985 | 27 ft | 0 kts | 250° |